Time;durP1;ratioP1;P1;durP2;ratioP2;P2;SDS_P1;SDS_P2;PMS_P1;PMS_P2;Temp;Humidity;BMP_temperature;BMP_pressure;BME280_temperature;BME280_humidity;BME280_pressure;Samples;Min_cycle;Max_cycle;Signal;HPM_P1;HPM_P2
2022/03/05 00:01:46;;;;;;;;;26.25;21.00;;;;;;;;5029343;28;51141;-54
2022/03/05 00:04:30;;;;;;;;;22.50;22.25;;;;;;;;5038222;28;51504;-54
2022/03/05 00:07:15;;;;;;;;;28.25;22.00;;;;;;;;5026719;28;51143;-54
2022/03/05 00:09:59;;;;;;;;;26.00;23.75;;;;;;;;5030671;28;51169;-54
2022/03/05 00:12:44;;;;;;;;;29.25;24.50;;;;;;;;5025451;28;51447;-52
2022/03/05 00:15:28;;;;;;;;;22.75;22.50;;;;;;;;5035515;28;51225;-54
2022/03/05 00:18:12;;;;;;;;;34.50;26.75;;;;;;;;5039372;28;51149;-54
2022/03/05 00:20:57;;;;;;;;;29.50;24.50;;;;;;;;5025883;28;51111;-54
2022/03/05 00:23:41;;;;;;;;;34.25;28.50;;;;;;;;5021897;28;51485;-54
2022/03/05 00:26:26;;;;;;;;;25.50;22.75;;;;;;;;5028817;28;51329;-54
2022/03/05 00:29:10;;;;;;;;;32.75;25.75;;;;;;;;5028183;28;51105;-54
2022/03/05 00:31:54;;;;;;;;;28.00;22.75;;;;;;;;5036015;28;51189;-53
2022/03/05 00:34:39;;;;;;;;;25.25;22.00;;;;;;;;5036316;28;50979;-55
2022/03/05 00:37:23;;;;;;;;;30.75;23.75;;;;;;;;5016779;28;51235;-54
2022/03/05 00:40:09;;;;;;;;;31.50;26.00;;;;;;;;5037948;28;51181;-54
2022/03/05 00:42:53;;;;;;;;;28.50;23.75;;;;;;;;5028873;28;51109;-54
2022/03/05 00:45:38;;;;;;;;;27.50;23.25;;;;;;;;5027643;28;51018;-54
2022/03/05 00:48:23;;;;;;;;;34.75;27.50;;;;;;;;5026239;28;51522;-53
2022/03/05 00:51:07;;;;;;;;;26.00;23.50;;;;;;;;5027280;28;51173;-54
2022/03/05 00:53:51;;;;;;;;;32.25;27.00;;;;;;;;5031534;28;51552;-53
2022/03/05 00:56:36;;;;;;;;;32.00;29.50;;;;;;;;5038519;28;51129;-53
2022/03/05 00:59:20;;;;;;;;;29.50;28.25;;;;;;;;5035679;28;51132;-55
2022/03/05 01:02:05;;;;;;;;;29.25;28.75;;;;;;;;5022370;28;51068;-55
2022/03/05 01:04:49;;;;;;;;;39.00;32.00;;;;;;;;5029776;28;51209;-54
2022/03/05 01:07:34;;;;;;;;;35.00;29.25;;;;;;;;5028037;28;51187;-54
2022/03/05 01:10:18;;;;;;;;;26.75;26.25;;;;;;;;5031985;28;51531;-54
2022/03/05 01:13:03;;;;;;;;;31.00;26.00;;;;;;;;5035736;28;51469;-54
2022/03/05 01:15:47;;;;;;;;;32.00;24.00;;;;;;;;5020392;28;51094;-53
2022/03/05 01:18:31;;;;;;;;;29.25;27.00;;;;;;;;5022655;28;51498;-55
2022/03/05 01:21:16;;;;;;;;;29.50;25.75;;;;;;;;5031224;28;51181;-53
2022/03/05 01:24:00;;;;;;;;;27.00;24.00;;;;;;;;5027853;28;51074;-54
2022/03/05 01:26:45;;;;;;;;;33.25;28.75;;;;;;;;5037100;28;51196;-54
2022/03/05 01:29:29;;;;;;;;;29.75;26.25;;;;;;;;5022224;28;51384;-55
2022/03/05 01:32:14;;;;;;;;;29.00;26.50;;;;;;;;5032515;28;51009;-55
2022/03/05 01:34:58;;;;;;;;;35.75;28.75;;;;;;;;5026564;28;51023;-52
2022/03/05 01:37:42;;;;;;;;;40.75;28.00;;;;;;;;5029094;28;52281;-54
2022/03/05 01:40:27;;;;;;;;;27.50;26.25;;;;;;;;5024711;28;51074;-54
2022/03/05 01:43:11;;;;;;;;;30.75;28.00;;;;;;;;5028950;28;51229;-54
2022/03/05 01:45:55;;;;;;;;;36.50;28.50;;;;;;;;5029258;28;51356;-54
2022/03/05 01:48:40;;;;;;;;;30.50;26.25;;;;;;;;5022596;28;51004;-54
2022/03/05 01:51:25;;;;;;;;;35.50;27.25;;;;;;;;5020828;28;51121;-54
2022/03/05 01:54:10;;;;;;;;;34.75;28.25;;;;;;;;5039021;28;51159;-54
2022/03/05 01:56:54;;;;;;;;;31.50;26.50;;;;;;;;5027499;28;51189;-54
2022/03/05 01:59:39;;;;;;;;;27.75;25.75;;;;;;;;5030918;28;51113;-53
2022/03/05 02:02:23;;;;;;;;;28.50;27.00;;;;;;;;5027892;28;51421;-54
2022/03/05 02:05:09;;;;;;;;;29.50;27.50;;;;;;;;5024713;28;51117;-54
2022/03/05 02:07:53;;;;;;;;;32.25;26.50;;;;;;;;5037119;28;50996;-54
2022/03/05 02:10:39;;;;;;;;;24.00;19.25;;;;;;;;5027273;28;51074;-55
2022/03/05 02:13:23;;;;;;;;;30.50;23.00;;;;;;;;5027271;28;51067;-52
2022/03/05 02:16:08;;;;;;;;;22.50;18.75;;;;;;;;5026713;28;51526;-54
2022/03/05 02:18:55;;;;;;;;;23.00;18.50;;;;;;;;5027169;28;51487;-54
2022/03/05 02:21:39;;;;;;;;;17.75;12.75;;;;;;;;5028636;28;51148;-54
2022/03/05 02:24:33;;;;;;;;;19.75;16.75;;;;;;;;5031875;28;51124;-54
2022/03/05 02:27:17;;;;;;;;;18.75;17.25;;;;;;;;5041432;28;51277;-55
2022/03/05 02:30:01;;;;;;;;;15.25;13.75;;;;;;;;5027798;28;51129;-54
2022/03/05 02:32:46;;;;;;;;;15.25;12.00;;;;;;;;5037804;28;51034;-53
2022/03/05 02:35:30;;;;;;;;;13.75;12.75;;;;;;;;5023785;28;51490;-54
2022/03/05 02:38:16;;;;;;;;;16.00;14.25;;;;;;;;5032526;28;51073;-54
2022/03/05 02:41:00;;;;;;;;;15.75;13.00;;;;;;;;5033877;28;51487;-53
2022/03/05 02:43:45;;;;;;;;;15.75;13.25;;;;;;;;5042118;28;51174;-54
2022/03/05 02:46:29;;;;;;;;;13.25;12.75;;;;;;;;5034922;28;51473;-55
2022/03/05 02:49:14;;;;;;;;;16.00;12.25;;;;;;;;5036364;28;51156;-52
2022/03/05 02:51:58;;;;;;;;;12.00;11.00;;;;;;;;5041539;28;51528;-54
2022/03/05 02:54:42;;;;;;;;;13.00;11.75;;;;;;;;5040558;28;51175;-54
2022/03/05 02:57:27;;;;;;;;;11.50;11.00;;;;;;;;5038703;28;51575;-54
2022/03/05 03:00:11;;;;;;;;;13.25;11.00;;;;;;;;5035924;28;51051;-51
2022/03/05 03:02:56;;;;;;;;;13.50;11.25;;;;;;;;5033050;28;51144;-54
2022/03/05 03:05:40;;;;;;;;;10.25;9.50;;;;;;;;5027688;28;50992;-54
2022/03/05 03:08:24;;;;;;;;;12.75;11.00;;;;;;;;5041467;28;51044;-53
2022/03/05 03:11:10;;;;;;;;;11.00;10.00;;;;;;;;5018068;28;51088;-54
2022/03/05 03:13:54;;;;;;;;;10.75;9.50;;;;;;;;5040995;28;51153;-54
2022/03/05 03:16:38;;;;;;;;;15.75;12.00;;;;;;;;5040864;28;51104;-54
2022/03/05 03:19:23;;;;;;;;;12.50;10.00;;;;;;;;5032142;28;51084;-54
2022/03/05 03:22:07;;;;;;;;;13.75;9.75;;;;;;;;5041582;28;51389;-53
2022/03/05 03:24:52;;;;;;;;;14.75;11.75;;;;;;;;5027040;28;51078;-51
2022/03/05 03:27:36;;;;;;;;;12.25;11.75;;;;;;;;5038762;28;51145;-54
2022/03/05 03:30:20;;;;;;;;;11.75;11.75;;;;;;;;5022607;28;51181;-54
2022/03/05 03:33:05;;;;;;;;;16.25;11.50;;;;;;;;5006077;28;51207;-53
2022/03/05 03:35:49;;;;;;;;;14.00;13.00;;;;;;;;5032212;28;51228;-54
2022/03/05 03:38:34;;;;;;;;;12.00;11.75;;;;;;;;5036184;28;51285;-54
2022/03/05 03:41:18;;;;;;;;;19.75;15.25;;;;;;;;5039732;28;51556;-52
2022/03/05 03:44:03;;;;;;;;;13.50;13.00;;;;;;;;5024956;28;51228;-54
2022/03/05 03:46:47;;;;;;;;;13.00;11.25;;;;;;;;5039028;28;51527;-53
2022/03/05 03:49:31;;;;;;;;;15.25;12.00;;;;;;;;5036097;28;53141;-54
2022/03/05 03:52:16;;;;;;;;;11.75;10.50;;;;;;;;5030830;28;51192;-54
2022/03/05 03:55:01;;;;;;;;;15.50;10.50;;;;;;;;5040164;28;51553;-53
2022/03/05 03:57:45;;;;;;;;;12.75;12.75;;;;;;;;5028271;28;51445;-53
2022/03/05 04:00:29;;;;;;;;;10.75;10.25;;;;;;;;5037583;28;51311;-53
2022/03/05 04:03:13;;;;;;;;;11.00;10.50;;;;;;;;5030333;28;51153;-54
2022/03/05 04:05:58;;;;;;;;;13.00;10.00;;;;;;;;5030411;28;51119;-54
2022/03/05 04:08:42;;;;;;;;;13.75;12.00;;;;;;;;5032364;28;51105;-53
2022/03/05 04:11:27;;;;;;;;;12.75;12.75;;;;;;;;5025606;28;51491;-53
2022/03/05 04:14:15;;;;;;;;;16.75;12.50;;;;;;;;5029011;28;51203;-54
2022/03/05 04:17:00;;;;;;;;;11.25;10.75;;;;;;;;5033532;28;51125;-54
2022/03/05 04:19:44;;;;;;;;;12.00;11.00;;;;;;;;5019918;28;51483;-54
2022/03/05 04:22:29;;;;;;;;;13.25;12.00;;;;;;;;5018491;28;51112;-54
2022/03/05 04:25:14;;;;;;;;;17.00;12.25;;;;;;;;5030072;28;51169;-54
2022/03/05 04:27:58;;;;;;;;;12.50;11.00;;;;;;;;5034984;28;51068;-54
2022/03/05 04:30:43;;;;;;;;;17.25;16.00;;;;;;;;5025256;28;51145;-54
2022/03/05 04:33:28;;;;;;;;;15.00;12.00;;;;;;;;5029238;28;51482;-53
2022/03/05 04:36:13;;;;;;;;;10.50;10.00;;;;;;;;5033845;28;51469;-53
2022/03/05 04:38:57;;;;;;;;;13.00;9.25;;;;;;;;5018247;28;51098;-54
2022/03/05 04:41:42;;;;;;;;;14.25;11.00;;;;;;;;5014098;28;51132;-54
2022/03/05 04:44:26;;;;;;;;;15.25;12.50;;;;;;;;5038111;28;50940;-54
2022/03/05 04:47:10;;;;;;;;;15.25;11.00;;;;;;;;5017071;28;51580;-53
2022/03/05 04:49:55;;;;;;;;;13.75;11.75;;;;;;;;5023258;28;51130;-54
2022/03/05 04:52:39;;;;;;;;;13.00;10.75;;;;;;;;5030235;28;51110;-54
2022/03/05 04:55:24;;;;;;;;;14.00;13.00;;;;;;;;5039368;28;51349;-52
2022/03/05 04:58:09;;;;;;;;;5.00;4.75;;;;;;;;5021830;28;51189;-54
2022/03/05 05:00:54;;;;;;;;;12.00;12.00;;;;;;;;5030057;28;51508;-52
2022/03/05 05:03:38;;;;;;;;;16.75;13.25;;;;;;;;5032637;28;51509;-53
2022/03/05 05:06:22;;;;;;;;;14.50;13.75;;;;;;;;5006064;28;51019;-54
2022/03/05 05:09:07;;;;;;;;;20.00;16.75;;;;;;;;5016351;28;51340;-52
2022/03/05 05:11:51;;;;;;;;;17.75;17.50;;;;;;;;5024083;28;51242;-52
2022/03/05 05:14:36;;;;;;;;;23.50;17.75;;;;;;;;5039193;28;51100;-54
2022/03/05 05:17:20;;;;;;;;;20.50;17.75;;;;;;;;5028214;28;51038;-53
2022/03/05 05:20:05;;;;;;;;;20.00;18.25;;;;;;;;5018969;28;51078;-52
2022/03/05 05:22:49;;;;;;;;;18.25;15.75;;;;;;;;5025730;28;51484;-54
2022/03/05 05:25:34;;;;;;;;;31.25;24.25;;;;;;;;5029486;28;51414;-54
2022/03/05 05:28:18;;;;;;;;;27.00;19.50;;;;;;;;5025458;28;51531;-53
2022/03/05 05:31:03;;;;;;;;;30.50;20.00;;;;;;;;5028179;28;51160;-53
2022/03/05 05:33:49;;;;;;;;;24.00;18.50;;;;;;;;5032240;28;51073;-54
2022/03/05 05:36:33;;;;;;;;;27.50;21.00;;;;;;;;5018885;28;51180;-51
2022/03/05 05:39:17;;;;;;;;;42.50;27.75;;;;;;;;5028593;28;51188;-53
2022/03/05 05:42:02;;;;;;;;;26.00;23.25;;;;;;;;5025395;28;51220;-54
2022/03/05 05:44:47;;;;;;;;;35.25;22.00;;;;;;;;5037432;28;51181;-55
2022/03/05 05:47:31;;;;;;;;;27.50;21.00;;;;;;;;5030720;28;51142;-55
2022/03/05 05:50:16;;;;;;;;;26.25;23.25;;;;;;;;5037918;28;51171;-54
2022/03/05 05:53:00;;;;;;;;;30.75;22.25;;;;;;;;5025959;28;51372;-54
2022/03/05 05:55:44;;;;;;;;;28.75;28.75;;;;;;;;5022268;28;51153;-53
2022/03/05 05:58:29;;;;;;;;;29.00;27.25;;;;;;;;5029289;28;51610;-54
2022/03/05 06:01:13;;;;;;;;;30.50;25.25;;;;;;;;5028253;28;51165;-54
2022/03/05 06:03:58;;;;;;;;;29.00;24.75;;;;;;;;5033620;28;51140;-54
2022/03/05 06:06:42;;;;;;;;;27.00;22.50;;;;;;;;5041239;28;51181;-51
2022/03/05 06:09:26;;;;;;;;;31.75;24.75;;;;;;;;5037548;28;51582;-53
2022/03/05 06:12:11;;;;;;;;;26.50;23.25;;;;;;;;5041776;28;51153;-54
2022/03/05 06:14:55;;;;;;;;;29.75;25.50;;;;;;;;5036859;28;51350;-52
2022/03/05 06:17:43;;;;;;;;;25.50;19.00;;;;;;;;5034645;28;51073;-53
2022/03/05 06:20:27;;;;;;;;;23.25;19.75;;;;;;;;5031832;28;51153;-53
2022/03/05 06:23:11;;;;;;;;;25.75;21.00;;;;;;;;5034887;28;51398;-52
2022/03/05 06:25:56;;;;;;;;;25.00;21.75;;;;;;;;5033450;28;51010;-54
2022/03/05 06:28:41;;;;;;;;;19.50;16.50;;;;;;;;5021020;28;51137;-53
2022/03/05 06:31:24;;;;;;;;;16.25;15.00;;;;;;;;5039403;28;51204;-53
2022/03/05 06:34:09;;;;;;;;;15.50;15.00;;;;;;;;5033639;28;51504;-53
2022/03/05 06:36:54;;;;;;;;;18.25;15.25;;;;;;;;5023864;28;50967;-54
2022/03/05 06:39:39;;;;;;;;;25.50;17.25;;;;;;;;5039237;28;51396;-54
2022/03/05 06:42:23;;;;;;;;;20.00;16.25;;;;;;;;5039370;28;51120;-53
2022/03/05 06:45:08;;;;;;;;;18.50;17.00;;;;;;;;5030984;28;50474;-54
2022/03/05 06:47:52;;;;;;;;;28.00;19.75;;;;;;;;5026376;28;51706;-51
2022/03/05 06:50:37;;;;;;;;;31.50;26.25;;;;;;;;5025603;28;51512;-53
2022/03/05 06:53:21;;;;;;;;;30.50;24.50;;;;;;;;5033188;28;52189;-52
2022/03/05 06:56:06;;;;;;;;;30.00;24.25;;;;;;;;5022427;28;51147;-53
2022/03/05 06:58:50;;;;;;;;;33.25;23.75;;;;;;;;5041608;28;51481;-53
2022/03/05 07:01:35;;;;;;;;;31.75;24.50;;;;;;;;5036320;28;51157;-54
2022/03/05 07:04:19;;;;;;;;;38.50;29.25;;;;;;;;5035007;28;51971;-53
2022/03/05 07:07:03;;;;;;;;;35.00;30.00;;;;;;;;5037395;28;51079;-54
2022/03/05 07:09:48;;;;;;;;;34.00;27.75;;;;;;;;5035463;28;51117;-54
2022/03/05 07:12:32;;;;;;;;;40.75;31.25;;;;;;;;5020476;28;51178;-53
2022/03/05 07:15:17;;;;;;;;;33.25;28.50;;;;;;;;5027892;28;51664;-54
2022/03/05 07:18:01;;;;;;;;;34.25;29.75;;;;;;;;5030019;28;51100;-53
2022/03/05 07:20:46;;;;;;;;;34.75;28.25;;;;;;;;5033344;28;51086;-53
2022/03/05 07:23:30;;;;;;;;;35.75;29.50;;;;;;;;5029033;28;51480;-53
2022/03/05 07:26:16;;;;;;;;;39.00;31.25;;;;;;;;5031267;28;51144;-54
2022/03/05 07:29:00;;;;;;;;;34.50;25.75;;;;;;;;5024406;28;51584;-53
2022/03/05 07:31:45;;;;;;;;;27.75;20.25;;;;;;;;5039255;28;51184;-53
2022/03/05 07:34:32;;;;;;;;;23.75;20.25;;;;;;;;5033374;28;51111;-54
2022/03/05 07:37:17;;;;;;;;;15.25;13.00;;;;;;;;5027491;28;51193;-52
2022/03/05 07:40:02;;;;;;;;;18.50;14.25;;;;;;;;5041223;28;51439;-53
2022/03/05 07:42:46;;;;;;;;;14.50;10.50;;;;;;;;5034075;28;51143;-53
2022/03/05 07:45:30;;;;;;;;;19.75;14.50;;;;;;;;5029553;28;51118;-54
2022/03/05 07:48:14;;;;;;;;;16.50;11.50;;;;;;;;5025094;28;51158;-54
2022/03/05 07:51:00;;;;;;;;;21.00;16.25;;;;;;;;5032446;28;51185;-53
2022/03/05 07:53:44;;;;;;;;;17.00;14.00;;;;;;;;5034569;28;51225;-54
2022/03/05 07:56:28;;;;;;;;;17.75;13.25;;;;;;;;5028819;28;51147;-53
2022/03/05 07:59:12;;;;;;;;;16.25;14.75;;;;;;;;5030706;28;51011;-54
2022/03/05 08:01:57;;;;;;;;;19.50;14.00;;;;;;;;5025130;28;51253;-55
2022/03/05 08:04:43;;;;;;;;;17.75;13.75;;;;;;;;5034054;28;51430;-54
2022/03/05 08:07:27;;;;;;;;;15.25;12.50;;;;;;;;5027222;28;51039;-53
2022/03/05 08:10:11;;;;;;;;;11.25;11.25;;;;;;;;5024894;28;51074;-54
2022/03/05 08:12:56;;;;;;;;;16.50;12.25;;;;;;;;5025603;28;51357;-54
2022/03/05 08:15:40;;;;;;;;;17.00;15.50;;;;;;;;5026325;28;51212;-54
2022/03/05 08:18:25;;;;;;;;;18.50;13.75;;;;;;;;5023634;28;51324;-54
2022/03/05 08:21:09;;;;;;;;;16.75;13.00;;;;;;;;5033348;28;51134;-53
2022/03/05 08:23:53;;;;;;;;;12.50;11.25;;;;;;;;5033395;28;51137;-53
2022/03/05 08:26:38;;;;;;;;;15.00;12.50;;;;;;;;5027388;28;51159;-54
2022/03/05 08:29:22;;;;;;;;;17.75;13.00;;;;;;;;5032219;28;51551;-54
2022/03/05 08:32:07;;;;;;;;;13.75;13.75;;;;;;;;5037711;28;51165;-54
2022/03/05 08:34:51;;;;;;;;;17.50;14.50;;;;;;;;5021034;28;51499;-54
2022/03/05 08:37:36;;;;;;;;;14.25;11.75;;;;;;;;5025825;28;51548;-54
2022/03/05 08:40:20;;;;;;;;;17.50;13.50;;;;;;;;5029006;28;51264;-54
2022/03/05 08:43:04;;;;;;;;;20.75;18.00;;;;;;;;5039641;28;51305;-48
2022/03/05 08:45:49;;;;;;;;;16.00;13.50;;;;;;;;5024053;28;51040;-51
2022/03/05 08:48:34;;;;;;;;;15.75;12.00;;;;;;;;5030093;28;51290;-54
2022/03/05 08:51:18;;;;;;;;;17.75;13.00;;;;;;;;5019350;28;51059;-50
2022/03/05 08:54:02;;;;;;;;;11.25;9.75;;;;;;;;5034321;28;51415;-53
2022/03/05 08:56:47;;;;;;;;;16.00;13.25;;;;;;;;5026688;28;51480;-49
2022/03/05 08:59:32;;;;;;;;;18.75;14.00;;;;;;;;5020480;28;52313;-49
2022/03/05 09:02:16;;;;;;;;;10.50;7.75;;;;;;;;5034665;28;51536;-49
2022/03/05 09:05:01;;;;;;;;;16.75;14.25;;;;;;;;5024065;28;51051;-52
2022/03/05 09:07:45;;;;;;;;;19.25;13.75;;;;;;;;5038615;28;51044;-54
2022/03/05 09:10:30;;;;;;;;;18.50;12.00;;;;;;;;5038746;28;51053;-52
2022/03/05 09:13:14;;;;;;;;;17.25;11.25;;;;;;;;5038393;28;51213;-57
2022/03/05 09:15:58;;;;;;;;;17.25;13.75;;;;;;;;5038660;28;51178;-56
2022/03/05 09:18:43;;;;;;;;;17.25;14.50;;;;;;;;5038889;28;52485;-55
2022/03/05 09:21:27;;;;;;;;;25.00;14.00;;;;;;;;5038643;28;51117;-53
2022/03/05 09:24:11;;;;;;;;;15.75;15.00;;;;;;;;5035990;28;51087;-52
2022/03/05 09:26:56;;;;;;;;;16.50;14.50;;;;;;;;5038742;28;51074;-54
2022/03/05 09:29:40;;;;;;;;;14.75;12.50;;;;;;;;5027347;28;50979;-49
2022/03/05 09:32:25;;;;;;;;;15.00;13.50;;;;;;;;5016967;28;51168;-58
2022/03/05 09:35:10;;;;;;;;;16.50;13.75;;;;;;;;5037841;28;51063;-53
2022/03/05 09:37:54;;;;;;;;;15.75;12.75;;;;;;;;5019561;28;51223;-53
2022/03/05 09:40:39;;;;;;;;;17.00;15.75;;;;;;;;5032543;28;51196;-52
2022/03/05 09:43:23;;;;;;;;;15.25;13.75;;;;;;;;5022722;28;51041;-56
2022/03/05 09:46:08;;;;;;;;;15.25;15.25;;;;;;;;5018376;28;51113;-54
2022/03/05 09:48:53;;;;;;;;;17.25;13.50;;;;;;;;5037299;28;51246;-55
2022/03/05 09:51:37;;;;;;;;;20.00;16.00;;;;;;;;5038535;28;51450;-56
2022/03/05 09:54:22;;;;;;;;;21.00;14.25;;;;;;;;5037926;28;51201;-49
2022/03/05 09:57:13;;;;;;;;;16.00;12.75;;;;;;;;5038444;28;51137;-49
2022/03/05 09:59:57;;;;;;;;;20.75;15.25;;;;;;;;5033498;28;51124;-57
2022/03/05 10:02:43;;;;;;;;;13.00;11.25;;;;;;;;5031246;28;51128;-50
2022/03/05 10:05:27;;;;;;;;;17.00;12.50;;;;;;;;5031436;28;51328;-53
2022/03/05 10:08:15;;;;;;;;;15.50;14.00;;;;;;;;5037644;28;51392;-50
2022/03/05 10:11:05;;;;;;;;;14.00;11.00;;;;;;;;5036892;28;51221;-52
2022/03/05 10:13:50;;;;;;;;;19.00;15.00;;;;;;;;5018722;28;51367;-54
2022/03/05 10:16:34;;;;;;;;;22.00;17.25;;;;;;;;5027197;28;51098;-48
2022/03/05 10:19:23;;;;;;;;;19.75;14.25;;;;;;;;5032260;28;51063;-54
2022/03/05 10:22:08;;;;;;;;;17.00;15.75;;;;;;;;5029279;28;51570;-56
2022/03/05 10:24:55;;;;;;;;;18.00;16.50;;;;;;;;5040216;28;51123;-55
2022/03/05 10:27:42;;;;;;;;;18.50;14.25;;;;;;;;5041711;28;51465;-56
2022/03/05 10:30:33;;;;;;;;;19.00;15.25;;;;;;;;5024034;28;51278;-51
2022/03/05 10:33:24;;;;;;;;;18.50;15.75;;;;;;;;5025865;28;51329;-57
2022/03/05 10:36:28;;;;;;;;;19.00;17.25;;;;;;;;5022328;28;51628;-54
2022/03/05 10:39:23;;;;;;;;;19.50;16.50;;;;;;;;5037695;28;51082;-57
2022/03/05 10:42:21;;;;;;;;;21.50;17.50;;;;;;;;5039851;28;51125;-54
2022/03/05 10:45:07;;;;;;;;;17.75;15.50;;;;;;;;5022996;28;51351;-52
2022/03/05 10:47:51;;;;;;;;;22.25;16.00;;;;;;;;5036344;28;51165;-55
2022/03/05 10:50:36;;;;;;;;;16.75;15.75;;;;;;;;5041282;28;51498;-52
2022/03/05 10:53:34;;;;;;;;;23.50;19.00;;;;;;;;5039684;28;51287;-55
2022/03/05 10:56:22;;;;;;;;;15.50;14.50;;;;;;;;5021263;28;51149;-52
2022/03/05 10:59:10;;;;;;;;;18.75;17.25;;;;;;;;5020983;28;51158;-57
2022/03/05 11:01:55;;;;;;;;;24.00;19.00;;;;;;;;5033109;28;51531;-54
2022/03/05 11:04:42;;;;;;;;;20.75;19.00;;;;;;;;5031925;28;51169;-54
2022/03/05 11:07:26;;;;;;;;;21.50;19.00;;;;;;;;5040132;28;51054;-55
2022/03/05 11:10:11;;;;;;;;;16.75;16.50;;;;;;;;5040424;28;51094;-51
2022/03/05 11:12:56;;;;;;;;;21.75;19.00;;;;;;;;5040364;28;51537;-54
2022/03/05 11:15:40;;;;;;;;;21.75;17.00;;;;;;;;5040371;28;51066;-53
2022/03/05 11:18:25;;;;;;;;;23.25;17.25;;;;;;;;5037373;28;51291;-52
2022/03/05 11:21:13;;;;;;;;;23.75;19.25;;;;;;;;5034324;28;51300;-54
2022/03/05 11:23:58;;;;;;;;;23.50;20.75;;;;;;;;5032474;28;52082;-51
2022/03/05 11:26:42;;;;;;;;;20.75;18.25;;;;;;;;5039790;28;51019;-53
2022/03/05 11:29:27;;;;;;;;;41.50;34.25;;;;;;;;5031471;28;51071;-57
2022/03/05 11:32:12;;;;;;;;;25.25;23.50;;;;;;;;5031307;28;51552;-53
2022/03/05 11:34:57;;;;;;;;;27.25;19.50;;;;;;;;5039376;28;51180;-53
2022/03/05 11:37:41;;;;;;;;;25.25;22.00;;;;;;;;5019817;28;51547;-52
2022/03/05 11:40:37;;;;;;;;;24.00;18.25;;;;;;;;5020066;28;51153;-57
2022/03/05 11:43:26;;;;;;;;;27.50;22.25;;;;;;;;5030301;28;51466;-54
2022/03/05 11:46:20;;;;;;;;;24.50;19.50;;;;;;;;5037527;28;51189;-55
2022/03/05 11:49:08;;;;;;;;;27.50;23.00;;;;;;;;5019937;28;51237;-58
2022/03/05 11:51:57;;;;;;;;;28.50;25.00;;;;;;;;5038363;28;51077;-51
2022/03/05 11:55:01;;;;;;;;;27.50;22.75;;;;;;;;5035491;28;51101;-54
2022/03/05 11:57:51;;;;;;;;;34.00;21.00;;;;;;;;5027288;28;51093;-54
2022/03/05 12:00:36;;;;;;;;;24.25;21.50;;;;;;;;5035979;28;51058;-54
2022/03/05 12:03:47;;;;;;;;;27.00;24.00;;;;;;;;5027867;28;51504;-55
2022/03/05 12:06:47;;;;;;;;;28.50;23.25;;;;;;;;5031110;28;51043;-53
2022/03/05 12:09:36;;;;;;;;;28.25;23.75;;;;;;;;5039520;28;51085;-55
2022/03/05 12:12:20;;;;;;;;;27.00;23.25;;;;;;;;5034262;28;51206;-59
2022/03/05 12:15:04;;;;;;;;;23.25;22.00;;;;;;;;5006440;28;51091;-57
2022/03/05 12:17:50;;;;;;;;;22.25;18.50;;;;;;;;5019813;28;51093;-52
2022/03/05 12:20:38;;;;;;;;;27.75;24.75;;;;;;;;5032347;28;51256;-56
2022/03/05 12:23:22;;;;;;;;;30.75;24.75;;;;;;;;5019116;28;51170;-56
2022/03/05 12:26:07;;;;;;;;;24.50;22.00;;;;;;;;5019205;28;51072;-56
2022/03/05 12:28:55;;;;;;;;;27.25;22.75;;;;;;;;5027141;28;52096;-59
2022/03/05 12:31:40;;;;;;;;;24.25;21.25;;;;;;;;5028439;28;51090;-56
2022/03/05 12:34:25;;;;;;;;;23.75;20.75;;;;;;;;5027478;28;51550;-56
2022/03/05 12:37:09;;;;;;;;;28.25;22.75;;;;;;;;5023822;28;51005;-57
2022/03/05 12:39:54;;;;;;;;;26.75;21.00;;;;;;;;5029454;28;51151;-57
2022/03/05 12:42:40;;;;;;;;;22.50;20.25;;;;;;;;5020583;28;51154;-56
2022/03/05 12:45:25;;;;;;;;;24.50;21.00;;;;;;;;5025349;28;51367;-57
2022/03/05 12:48:11;;;;;;;;;25.25;20.75;;;;;;;;5028149;28;51466;-52
2022/03/05 12:50:56;;;;;;;;;29.75;21.75;;;;;;;;5022155;28;51181;-59
2022/03/05 12:53:42;;;;;;;;;30.25;23.25;;;;;;;;5020325;28;51217;-56
2022/03/05 12:56:27;;;;;;;;;23.25;19.75;;;;;;;;5020468;28;51458;-56
2022/03/05 12:59:13;;;;;;;;;27.25;20.75;;;;;;;;5024707;28;51451;-57
2022/03/05 13:02:04;;;;;;;;;18.00;14.75;;;;;;;;5019408;28;51124;-55
2022/03/05 13:04:52;;;;;;;;;20.50;17.00;;;;;;;;5020099;28;51570;-57
2022/03/05 13:07:36;;;;;;;;;17.00;15.00;;;;;;;;5026435;28;51204;-58
2022/03/05 13:10:21;;;;;;;;;19.00;11.75;;;;;;;;5021063;28;51212;-58
2022/03/05 13:13:05;;;;;;;;;11.75;10.50;;;;;;;;5017948;28;51554;-54
2022/03/05 13:15:53;;;;;;;;;10.50;8.50;;;;;;;;5018335;28;51008;-56
2022/03/05 13:18:38;;;;;;;;;13.50;13.00;;;;;;;;5020804;28;51180;-59
2022/03/05 13:21:22;;;;;;;;;12.25;12.25;;;;;;;;5016737;28;51145;-56
2022/03/05 13:24:08;;;;;;;;;20.75;12.50;;;;;;;;5007928;28;51427;-59
2022/03/05 13:26:55;;;;;;;;;10.75;9.75;;;;;;;;5019518;28;51213;-58
2022/03/05 13:29:39;;;;;;;;;12.75;12.00;;;;;;;;5019902;28;51417;-59
2022/03/05 13:32:25;;;;;;;;;13.00;10.75;;;;;;;;5022296;28;52164;-58
2022/03/05 13:35:09;;;;;;;;;16.50;13.75;;;;;;;;5021839;28;51221;-58
2022/03/05 13:37:55;;;;;;;;;14.00;11.00;;;;;;;;5025905;28;51423;-58
2022/03/05 13:40:41;;;;;;;;;15.00;11.75;;;;;;;;5032808;28;51356;-59
2022/03/05 13:43:26;;;;;;;;;9.25;9.25;;;;;;;;5020880;28;51191;-59
2022/03/05 13:46:11;;;;;;;;;11.25;11.00;;;;;;;;5028084;28;51192;-59
2022/03/05 13:48:56;;;;;;;;;14.75;12.75;;;;;;;;5029048;28;51095;-59
2022/03/05 13:51:44;;;;;;;;;14.75;11.75;;;;;;;;5030371;28;51184;-59
2022/03/05 13:54:54;;;;;;;;;13.00;11.25;;;;;;;;5030446;28;51536;-59
2022/03/05 13:57:44;;;;;;;;;19.00;12.50;;;;;;;;5027645;28;51518;-59
2022/03/05 14:00:29;;;;;;;;;16.25;12.00;;;;;;;;5030901;28;51212;-58
2022/03/05 14:03:16;;;;;;;;;17.00;15.00;;;;;;;;5034670;28;51147;-59
2022/03/05 14:06:10;;;;;;;;;15.25;11.75;;;;;;;;5034417;28;51138;-61
2022/03/05 14:08:54;;;;;;;;;16.00;13.25;;;;;;;;5035255;28;51186;-60
2022/03/05 14:11:38;;;;;;;;;19.25;14.25;;;;;;;;5033883;28;51179;-59
2022/03/05 14:14:33;;;;;;;;;19.50;14.50;;;;;;;;5036532;28;51031;-59
2022/03/05 14:17:35;;;;;;;;;22.00;14.50;;;;;;;;5035258;28;51211;-59
2022/03/05 14:20:26;;;;;;;;;20.00;16.00;;;;;;;;5033939;28;51614;-59
2022/03/05 14:23:14;;;;;;;;;17.50;15.75;;;;;;;;5025276;28;51430;-59
2022/03/05 14:26:06;;;;;;;;;16.75;15.00;;;;;;;;5021730;28;51121;-59
2022/03/05 14:28:50;;;;;;;;;16.25;12.50;;;;;;;;5025134;28;51428;-59
2022/03/05 14:31:35;;;;;;;;;14.25;12.50;;;;;;;;5025608;28;51208;-59
2022/03/05 14:34:21;;;;;;;;;16.50;13.00;;;;;;;;5021613;28;51556;-58
2022/03/05 14:37:05;;;;;;;;;17.00;14.25;;;;;;;;5024407;28;51193;-59
2022/03/05 14:39:50;;;;;;;;;21.50;17.50;;;;;;;;5021024;28;51340;-59
2022/03/05 14:42:34;;;;;;;;;14.75;13.50;;;;;;;;5021091;28;51132;-59
2022/03/05 14:45:22;;;;;;;;;25.00;18.25;;;;;;;;5018796;28;51165;-58
2022/03/05 14:48:07;;;;;;;;;13.75;13.75;;;;;;;;5022375;28;51129;-59
2022/03/05 14:50:51;;;;;;;;;22.00;17.25;;;;;;;;5022656;28;51135;-60
2022/03/05 14:53:35;;;;;;;;;12.75;11.75;;;;;;;;5026720;28;51478;-58
2022/03/05 14:56:24;;;;;;;;;14.25;13.50;;;;;;;;5022504;28;51557;-59
2022/03/05 14:59:09;;;;;;;;;14.75;10.75;;;;;;;;5017248;28;51419;-59
2022/03/05 15:01:53;;;;;;;;;17.25;13.25;;;;;;;;5021211;28;51134;-59
2022/03/05 15:04:38;;;;;;;;;14.50;11.75;;;;;;;;5022456;28;51589;-58
2022/03/05 15:07:22;;;;;;;;;13.25;12.00;;;;;;;;5020740;28;51525;-59
2022/03/05 15:10:07;;;;;;;;;17.00;13.50;;;;;;;;5028949;28;51135;-58
2022/03/05 15:12:51;;;;;;;;;16.00;13.25;;;;;;;;5025996;28;51158;-59
2022/03/05 15:15:35;;;;;;;;;16.00;13.75;;;;;;;;5026503;28;51106;-60
2022/03/05 15:18:21;;;;;;;;;18.50;13.00;;;;;;;;5030424;28;51214;-58
2022/03/05 15:21:06;;;;;;;;;14.00;12.25;;;;;;;;5028974;28;51537;-59
2022/03/05 15:23:50;;;;;;;;;20.50;14.00;;;;;;;;5021040;28;51194;-59
2022/03/05 15:26:34;;;;;;;;;17.25;15.25;;;;;;;;5034949;28;51079;-58
2022/03/05 15:29:19;;;;;;;;;13.25;12.25;;;;;;;;5020635;28;51220;-60
2022/03/05 15:32:04;;;;;;;;;15.25;13.75;;;;;;;;5039650;28;51063;-58
2022/03/05 15:34:48;;;;;;;;;17.25;15.75;;;;;;;;5040397;28;51047;-59
2022/03/05 15:37:33;;;;;;;;;19.25;13.00;;;;;;;;5029560;28;51030;-59
2022/03/05 15:40:17;;;;;;;;;15.25;13.50;;;;;;;;5040921;28;51057;-60
2022/03/05 15:43:02;;;;;;;;;16.50;14.75;;;;;;;;5039767;28;51409;-59
2022/03/05 15:45:46;;;;;;;;;22.25;12.50;;;;;;;;5039872;28;51447;-59
2022/03/05 15:48:31;;;;;;;;;18.00;15.50;;;;;;;;5040033;28;51073;-59
2022/03/05 15:51:15;;;;;;;;;19.25;18.25;;;;;;;;5040682;28;51144;-59
2022/03/05 15:54:00;;;;;;;;;26.00;19.50;;;;;;;;5021965;28;51162;-59
2022/03/05 15:56:44;;;;;;;;;26.25;18.25;;;;;;;;5023964;28;51223;-59
2022/03/05 15:59:29;;;;;;;;;19.25;14.25;;;;;;;;5023741;28;51413;-59
2022/03/05 16:02:13;;;;;;;;;22.75;16.25;;;;;;;;5021406;28;51086;-59
2022/03/05 16:04:58;;;;;;;;;21.00;17.25;;;;;;;;5023663;28;51130;-59